Bala, Canada
Current Conditions -  °F | °C
As of 10:00 PM on Sunday 23 Nov 2014 (Local Time) from CYQA Reporting Station
Overcast Overcast  
Wind Chill: 36°   Ceiling: 10000
Heat Index: 41°   Visibility: 9mi
Dew Point: 41°   Wind: 8mph
Humidity: 100%   Direction: 120°ESE
Pressure: 29.67"   Gusts: NA
Location:  45.02°N, 79.61°W
Report Text: CYQA 240300Z AUTO 12007KT 9SM OVC100 05/05 A2967 RMK PRESFR SLP056
Loading
Personal Weather Stations






























Interactive Weather Map New forecast layout! Learn more

10-Day Weather Forecast

Advertisements
Track Severe Weather on mobile